sensor_id;sensor_type;location;lat;lon;timestamp;temperature;humidity
16767;DHT22;8501;49.926;8.404;2022-11-20T00:00:52;3.50;99.90
16767;DHT22;8501;49.926;8.404;2022-11-20T00:03:17;3.50;99.90
16767;DHT22;8501;49.926;8.404;2022-11-20T00:05:43;3.60;99.90
16767;DHT22;8501;49.926;8.404;2022-11-20T00:08:09;3.50;99.90
16767;DHT22;8501;49.926;8.404;2022-11-20T00:10:39;3.50;99.90
16767;DHT22;8501;49.926;8.404;2022-11-20T00:13:05;3.50;99.90
16767;DHT22;8501;49.926;8.404;2022-11-20T00:15:31;3.50;99.90
16767;DHT22;8501;49.926;8.404;2022-11-20T00:17:56;3.40;99.90
16767;DHT22;8501;49.926;8.404;2022-11-20T00:20:22;3.40;99.90
16767;DHT22;8501;49.926;8.404;2022-11-20T00:22:48;3.30;99.90
16767;DHT22;8501;49.926;8.404;2022-11-20T00:25:14;3.30;99.90
16767;DHT22;8501;49.926;8.404;2022-11-20T00:27:40;3.30;99.90
16767;DHT22;8501;49.926;8.404;2022-11-20T00:30:06;3.30;99.90
16767;DHT22;8501;49.926;8.404;2022-11-20T00:32:32;3.30;99.90
16767;DHT22;8501;49.926;8.404;2022-11-20T00:34:57;3.30;99.90
16767;DHT22;8501;49.926;8.404;2022-11-20T00:37:23;3.40;99.90
16767;DHT22;8501;49.926;8.404;2022-11-20T00:39:48;3.40;99.90
16767;DHT22;8501;49.926;8.404;2022-11-20T00:42:14;3.40;99.90
16767;DHT22;8501;49.926;8.404;2022-11-20T00:44:40;3.30;99.90
16767;DHT22;8501;49.926;8.404;2022-11-20T00:47:05;3.30;99.90
16767;DHT22;8501;49.926;8.404;2022-11-20T00:49:31;3.40;99.90
16767;DHT22;8501;49.926;8.404;2022-11-20T00:51:56;3.30;99.90
16767;DHT22;8501;49.926;8.404;2022-11-20T00:54:22;3.30;99.90
16767;DHT22;8501;49.926;8.404;2022-11-20T00:56:47;3.40;99.90
16767;DHT22;8501;49.926;8.404;2022-11-20T00:59:13;3.40;99.90
16767;DHT22;8501;49.926;8.404;2022-11-20T01:01:38;3.40;99.90
16767;DHT22;8501;49.926;8.404;2022-11-20T01:04:04;3.40;99.90
16767;DHT22;8501;49.926;8.404;2022-11-20T01:06:32;3.40;99.90
16767;DHT22;8501;49.926;8.404;2022-11-20T01:09:00;3.50;99.90
16767;DHT22;8501;49.926;8.404;2022-11-20T01:11:28;3.40;99.90
16767;DHT22;8501;49.926;8.404;2022-11-20T01:13:56;3.40;99.90
16767;DHT22;8501;49.926;8.404;2022-11-20T01:18:54;3.40;99.90
16767;DHT22;8501;49.926;8.404;2022-11-20T01:21:22;3.50;99.90
16767;DHT22;8501;49.926;8.404;2022-11-20T01:23:49;3.40;99.90
16767;DHT22;8501;49.926;8.404;2022-11-20T01:26:17;3.50;99.90
16767;DHT22;8501;49.926;8.404;2022-11-20T01:28:43;3.40;99.90
16767;DHT22;8501;49.926;8.404;2022-11-20T01:31:24;3.50;99.90
16767;DHT22;8501;49.926;8.404;2022-11-20T01:33:52;3.50;99.90
16767;DHT22;8501;49.926;8.404;2022-11-20T01:36:19;3.50;99.90
16767;DHT22;8501;49.926;8.404;2022-11-20T01:38:45;3.50;99.90
16767;DHT22;8501;49.926;8.404;2022-11-20T01:41:12;3.50;99.90
16767;DHT22;8501;49.926;8.404;2022-11-20T01:43:59;3.50;99.90
16767;DHT22;8501;49.926;8.404;2022-11-20T01:46:24;3.60;99.90
16767;DHT22;8501;49.926;8.404;2022-11-20T01:49:15;3.40;99.90
16767;DHT22;8501;49.926;8.404;2022-11-20T01:51:50;3.50;99.90
16767;DHT22;8501;49.926;8.404;2022-11-20T01:54:21;3.50;99.90
16767;DHT22;8501;49.926;8.404;2022-11-20T01:56:51;3.50;99.90
16767;DHT22;8501;49.926;8.404;2022-11-20T01:59:18;3.50;99.90
16767;DHT22;8501;49.926;8.404;2022-11-20T02:01:45;3.40;99.90
16767;DHT22;8501;49.926;8.404;2022-11-20T02:04:11;3.40;99.90
16767;DHT22;8501;49.926;8.404;2022-11-20T02:06:46;3.40;99.90
16767;DHT22;8501;49.926;8.404;2022-11-20T02:09:14;3.50;99.90
16767;DHT22;8501;49.926;8.404;2022-11-20T02:11:39;3.50;99.90
16767;DHT22;8501;49.926;8.404;2022-11-20T02:14:05;3.40;99.90
16767;DHT22;8501;49.926;8.404;2022-11-20T02:16:35;3.40;99.90
16767;DHT22;8501;49.926;8.404;2022-11-20T02:19:04;3.40;99.90
16767;DHT22;8501;49.926;8.404;2022-11-20T02:21:43;3.50;99.90
16767;DHT22;8501;49.926;8.404;2022-11-20T02:24:14;3.50;99.90
16767;DHT22;8501;49.926;8.404;2022-11-20T02:26:45;3.50;99.90
16767;DHT22;8501;49.926;8.404;2022-11-20T02:29:13;3.50;99.90
16767;DHT22;8501;49.926;8.404;2022-11-20T02:31:42;3.40;99.90
16767;DHT22;8501;49.926;8.404;2022-11-20T02:34:08;3.40;99.90
16767;DHT22;8501;49.926;8.404;2022-11-20T02:36:35;3.40;99.90
16767;DHT22;8501;49.926;8.404;2022-11-20T02:39:03;3.40;99.90
16767;DHT22;8501;49.926;8.404;2022-11-20T02:41:36;3.50;99.90
16767;DHT22;8501;49.926;8.404;2022-11-20T02:44:02;3.50;99.90
16767;DHT22;8501;49.926;8.404;2022-11-20T02:46:28;3.50;99.90
16767;DHT22;8501;49.926;8.404;2022-11-20T02:48:54;3.50;99.90
16767;DHT22;8501;49.926;8.404;2022-11-20T02:51:20;3.50;99.90
16767;DHT22;8501;49.926;8.404;2022-11-20T02:53:45;3.40;99.90
16767;DHT22;8501;49.926;8.404;2022-11-20T02:56:11;3.40;99.90
16767;DHT22;8501;49.926;8.404;2022-11-20T02:58:36;3.50;99.90
16767;DHT22;8501;49.926;8.404;2022-11-20T03:01:02;3.50;99.90
16767;DHT22;8501;49.926;8.404;2022-11-20T03:03:28;3.40;99.90
16767;DHT22;8501;49.926;8.404;2022-11-20T03:05:53;3.40;99.90
16767;DHT22;8501;49.926;8.404;2022-11-20T03:08:19;3.40;99.90
16767;DHT22;8501;49.926;8.404;2022-11-20T03:10:44;3.40;99.90
16767;DHT22;8501;49.926;8.404;2022-11-20T03:13:10;3.40;99.90
16767;DHT22;8501;49.926;8.404;2022-11-20T03:15:36;3.40;99.90
16767;DHT22;8501;49.926;8.404;2022-11-20T03:18:02;3.40;99.90
16767;DHT22;8501;49.926;8.404;2022-11-20T03:20:28;3.40;99.90
16767;DHT22;8501;49.926;8.404;2022-11-20T03:22:54;3.40;99.90
16767;DHT22;8501;49.926;8.404;2022-11-20T03:25:20;3.40;99.90
16767;DHT22;8501;49.926;8.404;2022-11-20T03:27:46;3.40;99.90
16767;DHT22;8501;49.926;8.404;2022-11-20T03:30:12;3.40;99.90
16767;DHT22;8501;49.926;8.404;2022-11-20T03:32:37;3.40;99.90
16767;DHT22;8501;49.926;8.404;2022-11-20T03:35:03;3.40;99.90
16767;DHT22;8501;49.926;8.404;2022-11-20T03:37:29;3.40;99.90
16767;DHT22;8501;49.926;8.404;2022-11-20T03:39:54;3.50;99.90
16767;DHT22;8501;49.926;8.404;2022-11-20T03:42:20;3.50;99.90
16767;DHT22;8501;49.926;8.404;2022-11-20T03:45:04;3.50;99.90
16767;DHT22;8501;49.926;8.404;2022-11-20T03:47:30;3.60;99.90
16767;DHT22;8501;49.926;8.404;2022-11-20T03:49:56;3.50;99.90
16767;DHT22;8501;49.926;8.404;2022-11-20T03:52:21;3.50;99.90
16767;DHT22;8501;49.926;8.404;2022-11-20T03:54:47;3.50;99.90
16767;DHT22;8501;49.926;8.404;2022-11-20T03:57:12;3.50;99.90
16767;DHT22;8501;49.926;8.404;2022-11-20T03:59:38;3.40;99.90
16767;DHT22;8501;49.926;8.404;2022-11-20T04:02:03;3.50;99.90
16767;DHT22;8501;49.926;8.404;2022-11-20T04:04:29;3.50;99.90
16767;DHT22;8501;49.926;8.404;2022-11-20T04:06:54;3.50;99.90
16767;DHT22;8501;49.926;8.404;2022-11-20T04:09:20;3.50;99.90
16767;DHT22;8501;49.926;8.404;2022-11-20T04:11:45;3.50;99.90
16767;DHT22;8501;49.926;8.404;2022-11-20T04:14:13;3.50;99.90
16767;DHT22;8501;49.926;8.404;2022-11-20T04:16:39;3.50;99.90
16767;DHT22;8501;49.926;8.404;2022-11-20T04:19:08;3.50;99.90
16767;DHT22;8501;49.926;8.404;2022-11-20T04:21:34;3.50;99.90
16767;DHT22;8501;49.926;8.404;2022-11-20T04:24:00;3.50;99.90
16767;DHT22;8501;49.926;8.404;2022-11-20T04:26:27;3.60;99.90
16767;DHT22;8501;49.926;8.404;2022-11-20T04:28:53;3.50;99.90
16767;DHT22;8501;49.926;8.404;2022-11-20T04:31:28;3.60;99.90
16767;DHT22;8501;49.926;8.404;2022-11-20T04:33:54;3.60;99.90
16767;DHT22;8501;49.926;8.404;2022-11-20T04:38:45;3.50;99.90
16767;DHT22;8501;49.926;8.404;2022-11-20T04:41:19;3.50;99.90
16767;DHT22;8501;49.926;8.404;2022-11-20T04:43:49;3.40;99.90
16767;DHT22;8501;49.926;8.404;2022-11-20T04:46:16;3.40;99.90
16767;DHT22;8501;49.926;8.404;2022-11-20T04:48:41;3.50;99.90
16767;DHT22;8501;49.926;8.404;2022-11-20T04:51:07;3.40;99.90
16767;DHT22;8501;49.926;8.404;2022-11-20T04:53:33;3.40;99.90
16767;DHT22;8501;49.926;8.404;2022-11-20T04:56:07;3.50;99.90
16767;DHT22;8501;49.926;8.404;2022-11-20T04:58:33;3.50;99.90
16767;DHT22;8501;49.926;8.404;2022-11-20T05:03:32;3.50;99.90
16767;DHT22;8501;49.926;8.404;2022-11-20T05:06:01;3.50;99.90
16767;DHT22;8501;49.926;8.404;2022-11-20T05:08:28;3.40;99.90
16767;DHT22;8501;49.926;8.404;2022-11-20T05:10:53;3.50;99.90
16767;DHT22;8501;49.926;8.404;2022-11-20T05:13:19;3.50;99.90
16767;DHT22;8501;49.926;8.404;2022-11-20T05:15:44;3.50;99.90
16767;DHT22;8501;49.926;8.404;2022-11-20T05:18:10;3.50;99.90
16767;DHT22;8501;49.926;8.404;2022-11-20T05:20:35;3.50;99.90
16767;DHT22;8501;49.926;8.404;2022-11-20T05:23:01;3.50;99.90
16767;DHT22;8501;49.926;8.404;2022-11-20T05:25:27;3.50;99.90
16767;DHT22;8501;49.926;8.404;2022-11-20T05:27:53;3.40;99.90
16767;DHT22;8501;49.926;8.404;2022-11-20T05:30:19;3.40;99.90
16767;DHT22;8501;49.926;8.404;2022-11-20T05:32:44;3.50;99.90
16767;DHT22;8501;49.926;8.404;2022-11-20T05:35:10;3.50;99.90
16767;DHT22;8501;49.926;8.404;2022-11-20T05:37:35;3.50;99.90
16767;DHT22;8501;49.926;8.404;2022-11-20T05:40:01;3.50;99.90
16767;DHT22;8501;49.926;8.404;2022-11-20T05:42:29;3.50;99.90
16767;DHT22;8501;49.926;8.404;2022-11-20T05:45:03;3.50;99.90
16767;DHT22;8501;49.926;8.404;2022-11-20T05:47:33;3.50;99.90
16767;DHT22;8501;49.926;8.404;2022-11-20T05:49:59;3.50;99.90
16767;DHT22;8501;49.926;8.404;2022-11-20T05:52:24;3.50;99.90
16767;DHT22;8501;49.926;8.404;2022-11-20T05:54:52;3.50;99.90
16767;DHT22;8501;49.926;8.404;2022-11-20T05:57:19;3.60;99.90
16767;DHT22;8501;49.926;8.404;2022-11-20T05:59:45;3.60;99.90
16767;DHT22;8501;49.926;8.404;2022-11-20T06:02:10;3.60;99.90
16767;DHT22;8501;49.926;8.404;2022-11-20T06:04:36;3.60;99.90
16767;DHT22;8501;49.926;8.404;2022-11-20T06:07:01;3.60;99.90
16767;DHT22;8501;49.926;8.404;2022-11-20T06:09:27;3.60;99.90
16767;DHT22;8501;49.926;8.404;2022-11-20T06:11:53;3.60;99.90
16767;DHT22;8501;49.926;8.404;2022-11-20T06:14:18;3.60;99.90
16767;DHT22;8501;49.926;8.404;2022-11-20T06:16:44;3.60;99.90
16767;DHT22;8501;49.926;8.404;2022-11-20T06:19:09;3.60;99.90
16767;DHT22;8501;49.926;8.404;2022-11-20T06:21:35;3.60;99.90
16767;DHT22;8501;49.926;8.404;2022-11-20T06:24:00;3.60;99.90
16767;DHT22;8501;49.926;8.404;2022-11-20T06:26:27;3.60;99.90
16767;DHT22;8501;49.926;8.404;2022-11-20T06:28:53;3.60;99.90
16767;DHT22;8501;49.926;8.404;2022-11-20T06:31:21;3.60;99.90
16767;DHT22;8501;49.926;8.404;2022-11-20T06:33:47;3.60;99.90
16767;DHT22;8501;49.926;8.404;2022-11-20T06:36:14;3.60;99.90
16767;DHT22;8501;49.926;8.404;2022-11-20T06:38:40;3.60;99.90
16767;DHT22;8501;49.926;8.404;2022-11-20T06:41:08;3.70;99.90
16767;DHT22;8501;49.926;8.404;2022-11-20T06:43:35;3.70;99.90
16767;DHT22;8501;49.926;8.404;2022-11-20T06:46:01;3.70;99.90
16767;DHT22;8501;49.926;8.404;2022-11-20T06:48:28;3.60;99.90
16767;DHT22;8501;49.926;8.404;2022-11-20T06:50:53;3.60;99.90
16767;DHT22;8501;49.926;8.404;2022-11-20T06:53:19;3.60;99.90
16767;DHT22;8501;49.926;8.404;2022-11-20T06:55:46;3.60;99.90
16767;DHT22;8501;49.926;8.404;2022-11-20T06:58:16;3.60;99.90
16767;DHT22;8501;49.926;8.404;2022-11-20T07:00:42;3.60;99.90
16767;DHT22;8501;49.926;8.404;2022-11-20T07:03:09;3.70;99.90
16767;DHT22;8501;49.926;8.404;2022-11-20T07:05:36;3.60;99.90
16767;DHT22;8501;49.926;8.404;2022-11-20T07:08:02;3.60;99.90
16767;DHT22;8501;49.926;8.404;2022-11-20T07:10:28;3.70;99.90
16767;DHT22;8501;49.926;8.404;2022-11-20T07:12:54;3.70;99.90
16767;DHT22;8501;49.926;8.404;2022-11-20T07:15:21;3.70;99.90
16767;DHT22;8501;49.926;8.404;2022-11-20T07:17:47;3.60;99.90
16767;DHT22;8501;49.926;8.404;2022-11-20T07:20:13;3.70;99.90
16767;DHT22;8501;49.926;8.404;2022-11-20T07:22:39;3.70;99.90
16767;DHT22;8501;49.926;8.404;2022-11-20T07:25:05;3.60;99.90
16767;DHT22;8501;49.926;8.404;2022-11-20T07:27:31;3.70;99.90
16767;DHT22;8501;49.926;8.404;2022-11-20T07:29:56;3.60;99.90
16767;DHT22;8501;49.926;8.404;2022-11-20T07:32:22;3.70;99.90
16767;DHT22;8501;49.926;8.404;2022-11-20T07:34:48;3.70;99.90
16767;DHT22;8501;49.926;8.404;2022-11-20T07:37:14;3.70;99.90
16767;DHT22;8501;49.926;8.404;2022-11-20T07:39:40;3.70;99.90
16767;DHT22;8501;49.926;8.404;2022-11-20T07:42:08;3.60;99.90
16767;DHT22;8501;49.926;8.404;2022-11-20T07:44:35;3.70;99.90
16767;DHT22;8501;49.926;8.404;2022-11-20T07:47:01;3.70;99.90
16767;DHT22;8501;49.926;8.404;2022-11-20T07:49:27;3.70;99.90
16767;DHT22;8501;49.926;8.404;2022-11-20T07:51:52;3.70;99.90
16767;DHT22;8501;49.926;8.404;2022-11-20T07:54:21;3.70;99.90
16767;DHT22;8501;49.926;8.404;2022-11-20T07:56:50;3.80;99.90
16767;DHT22;8501;49.926;8.404;2022-11-20T07:59:16;3.70;99.90
16767;DHT22;8501;49.926;8.404;2022-11-20T08:01:42;3.70;99.90
16767;DHT22;8501;49.926;8.404;2022-11-20T08:04:08;3.60;99.90
16767;DHT22;8501;49.926;8.404;2022-11-20T08:06:35;3.70;99.90
16767;DHT22;8501;49.926;8.404;2022-11-20T08:09:00;3.70;99.90
16767;DHT22;8501;49.926;8.404;2022-11-20T08:11:26;3.80;99.90
16767;DHT22;8501;49.926;8.404;2022-11-20T08:14:10;3.80;99.90
16767;DHT22;8501;49.926;8.404;2022-11-20T08:16:43;3.80;99.90
16767;DHT22;8501;49.926;8.404;2022-11-20T08:19:09;3.90;99.90
16767;DHT22;8501;49.926;8.404;2022-11-20T08:21:35;3.90;99.90
16767;DHT22;8501;49.926;8.404;2022-11-20T08:24:01;4.00;99.90
16767;DHT22;8501;49.926;8.404;2022-11-20T08:26:26;4.00;99.90
16767;DHT22;8501;49.926;8.404;2022-11-20T08:28:56;4.10;99.90
16767;DHT22;8501;49.926;8.404;2022-11-20T08:31:23;4.10;99.90
16767;DHT22;8501;49.926;8.404;2022-11-20T08:33:49;4.10;99.90
16767;DHT22;8501;49.926;8.404;2022-11-20T08:36:14;4.10;99.90
16767;DHT22;8501;49.926;8.404;2022-11-20T08:38:40;4.10;99.90
16767;DHT22;8501;49.926;8.404;2022-11-20T08:41:06;4.10;99.90
16767;DHT22;8501;49.926;8.404;2022-11-20T08:46:22;4.10;99.90
16767;DHT22;8501;49.926;8.404;2022-11-20T08:48:48;4.10;99.90
16767;DHT22;8501;49.926;8.404;2022-11-20T08:51:14;4.20;99.90
16767;DHT22;8501;49.926;8.404;2022-11-20T08:53:40;4.10;99.90
16767;DHT22;8501;49.926;8.404;2022-11-20T08:56:06;4.20;99.90
16767;DHT22;8501;49.926;8.404;2022-11-20T08:58:31;4.30;99.90
16767;DHT22;8501;49.926;8.404;2022-11-20T09:00:57;4.20;99.90
16767;DHT22;8501;49.926;8.404;2022-11-20T09:03:23;4.30;99.90
16767;DHT22;8501;49.926;8.404;2022-11-20T09:05:48;4.30;99.90
16767;DHT22;8501;49.926;8.404;2022-11-20T09:08:14;4.30;99.90
16767;DHT22;8501;49.926;8.404;2022-11-20T09:10:39;4.30;99.90
16767;DHT22;8501;49.926;8.404;2022-11-20T09:13:05;4.40;99.90
16767;DHT22;8501;49.926;8.404;2022-11-20T09:15:31;4.40;99.90
16767;DHT22;8501;49.926;8.404;2022-11-20T09:17:59;4.50;99.90
16767;DHT22;8501;49.926;8.404;2022-11-20T09:20:26;4.50;99.90
16767;DHT22;8501;49.926;8.404;2022-11-20T09:22:52;4.50;99.90
16767;DHT22;8501;49.926;8.404;2022-11-20T09:25:17;4.50;99.90
16767;DHT22;8501;49.926;8.404;2022-11-20T09:27:43;4.50;99.90
16767;DHT22;8501;49.926;8.404;2022-11-20T09:30:12;4.50;99.90
16767;DHT22;8501;49.926;8.404;2022-11-20T09:32:42;4.50;99.90
16767;DHT22;8501;49.926;8.404;2022-11-20T09:35:08;4.50;99.90
16767;DHT22;8501;49.926;8.404;2022-11-20T09:37:33;4.40;99.90
16767;DHT22;8501;49.926;8.404;2022-11-20T09:39:59;4.50;99.90
16767;DHT22;8501;49.926;8.404;2022-11-20T09:45:18;4.40;99.90
16767;DHT22;8501;49.926;8.404;2022-11-20T09:48:04;4.40;99.90
16767;DHT22;8501;49.926;8.404;2022-11-20T09:55:40;4.50;99.90
16767;DHT22;8501;49.926;8.404;2022-11-20T09:58:07;4.60;99.90
16767;DHT22;8501;49.926;8.404;2022-11-20T10:00:38;4.60;99.90
16767;DHT22;8501;49.926;8.404;2022-11-20T10:03:14;4.50;99.90
16767;DHT22;8501;49.926;8.404;2022-11-20T10:05:48;4.50;99.90
16767;DHT22;8501;49.926;8.404;2022-11-20T10:09:11;4.60;99.90
16767;DHT22;8501;49.926;8.404;2022-11-20T10:14:10;4.60;99.90
16767;DHT22;8501;49.926;8.404;2022-11-20T10:16:42;4.60;99.90
16767;DHT22;8501;49.926;8.404;2022-11-20T10:27:40;4.70;99.90
16767;DHT22;8501;49.926;8.404;2022-11-20T10:30:15;4.70;99.90
16767;DHT22;8501;49.926;8.404;2022-11-20T10:32:46;4.70;99.90
16767;DHT22;8501;49.926;8.404;2022-11-20T10:35:24;4.70;99.90
16767;DHT22;8501;49.926;8.404;2022-11-20T10:38:05;4.80;99.90
16767;DHT22;8501;49.926;8.404;2022-11-20T10:40:42;4.70;99.90
16767;DHT22;8501;49.926;8.404;2022-11-20T10:43:13;4.80;99.90
16767;DHT22;8501;49.926;8.404;2022-11-20T10:45:56;4.80;99.90
16767;DHT22;8501;49.926;8.404;2022-11-20T10:48:25;4.80;99.90
16767;DHT22;8501;49.926;8.404;2022-11-20T10:51:05;4.80;99.90
16767;DHT22;8501;49.926;8.404;2022-11-20T10:56:31;4.80;99.90
16767;DHT22;8501;49.926;8.404;2022-11-20T11:01:57;4.80;99.90
16767;DHT22;8501;49.926;8.404;2022-11-20T11:04:28;4.80;99.90
16767;DHT22;8501;49.926;8.404;2022-11-20T11:07:22;4.90;99.90
16767;DHT22;8501;49.926;8.404;2022-11-20T11:09:54;4.90;99.90
16767;DHT22;8501;49.926;8.404;2022-11-20T11:12:23;4.90;99.90
16767;DHT22;8501;49.926;8.404;2022-11-20T11:14:52;4.90;99.90
16767;DHT22;8501;49.926;8.404;2022-11-20T11:17:29;5.00;99.90
16767;DHT22;8501;49.926;8.404;2022-11-20T11:20:03;5.00;99.90
16767;DHT22;8501;49.926;8.404;2022-11-20T11:22:31;5.00;99.90
16767;DHT22;8501;49.926;8.404;2022-11-20T11:24:57;5.10;99.90
16767;DHT22;8501;49.926;8.404;2022-11-20T11:27:23;5.00;99.90
16767;DHT22;8501;49.926;8.404;2022-11-20T11:29:48;5.00;99.90
16767;DHT22;8501;49.926;8.404;2022-11-20T11:32:19;5.00;99.90
16767;DHT22;8501;49.926;8.404;2022-11-20T11:34:59;5.10;99.90
16767;DHT22;8501;49.926;8.404;2022-11-20T11:37:28;5.10;99.90
16767;DHT22;8501;49.926;8.404;2022-11-20T11:39:54;5.20;99.90
16767;DHT22;8501;49.926;8.404;2022-11-20T11:42:20;5.20;99.90
16767;DHT22;8501;49.926;8.404;2022-11-20T11:44:47;5.20;99.90
16767;DHT22;8501;49.926;8.404;2022-11-20T11:47:52;5.20;99.90
16767;DHT22;8501;49.926;8.404;2022-11-20T11:50:24;5.20;99.90
16767;DHT22;8501;49.926;8.404;2022-11-20T11:53:09;5.30;99.90
16767;DHT22;8501;49.926;8.404;2022-11-20T12:03:43;5.30;99.90
16767;DHT22;8501;49.926;8.404;2022-11-20T12:06:14;5.30;99.90
16767;DHT22;8501;49.926;8.404;2022-11-20T12:08:50;5.30;99.90
16767;DHT22;8501;49.926;8.404;2022-11-20T12:14:09;5.40;99.90
16767;DHT22;8501;49.926;8.404;2022-11-20T12:16:38;5.40;99.90
16767;DHT22;8501;49.926;8.404;2022-11-20T12:19:10;5.40;99.90
16767;DHT22;8501;49.926;8.404;2022-11-20T12:24:42;5.40;99.90
16767;DHT22;8501;49.926;8.404;2022-11-20T12:32:51;5.50;99.90
16767;DHT22;8501;49.926;8.404;2022-11-20T12:41:32;5.50;99.90
16767;DHT22;8501;49.926;8.404;2022-11-20T12:50:10;5.60;99.90
16767;DHT22;8501;49.926;8.404;2022-11-20T12:58:29;5.60;99.90
16767;DHT22;8501;49.926;8.404;2022-11-20T13:03:40;5.60;99.90
16767;DHT22;8501;49.926;8.404;2022-11-20T13:06:14;5.60;99.90
16767;DHT22;8501;49.926;8.404;2022-11-20T13:08:48;5.60;99.90
16767;DHT22;8501;49.926;8.404;2022-11-20T13:11:21;5.60;99.90
16767;DHT22;8501;49.926;8.404;2022-11-20T13:17:05;5.60;99.90
16767;DHT22;8501;49.926;8.404;2022-11-20T13:19:35;5.60;99.90
16767;DHT22;8501;49.926;8.404;2022-11-20T13:22:01;5.60;99.90
16767;DHT22;8501;49.926;8.404;2022-11-20T13:24:29;5.50;99.90
16767;DHT22;8501;49.926;8.404;2022-11-20T13:29:35;5.60;99.90
16767;DHT22;8501;49.926;8.404;2022-11-20T13:32:05;5.60;99.90
16767;DHT22;8501;49.926;8.404;2022-11-20T13:34:31;5.60;99.90
16767;DHT22;8501;49.926;8.404;2022-11-20T13:36:59;5.70;99.90
16767;DHT22;8501;49.926;8.404;2022-11-20T13:39:36;5.70;99.90
16767;DHT22;8501;49.926;8.404;2022-11-20T13:44:39;5.80;99.90
16767;DHT22;8501;49.926;8.404;2022-11-20T13:47:27;5.80;99.90
16767;DHT22;8501;49.926;8.404;2022-11-20T13:49:57;5.80;99.90
16767;DHT22;8501;49.926;8.404;2022-11-20T14:00:27;5.90;99.90
16767;DHT22;8501;49.926;8.404;2022-11-20T14:05:35;6.00;99.90
16767;DHT22;8501;49.926;8.404;2022-11-20T14:08:03;6.00;99.90
16767;DHT22;8501;49.926;8.404;2022-11-20T14:10:31;6.00;99.90
16767;DHT22;8501;49.926;8.404;2022-11-20T14:12:56;6.00;99.90
16767;DHT22;8501;49.926;8.404;2022-11-20T14:15:33;6.10;99.90
16767;DHT22;8501;49.926;8.404;2022-11-20T14:18:00;6.10;99.90
16767;DHT22;8501;49.926;8.404;2022-11-20T14:20:36;6.10;99.90
16767;DHT22;8501;49.926;8.404;2022-11-20T14:23:03;6.10;99.90
16767;DHT22;8501;49.926;8.404;2022-11-20T14:25:30;6.00;99.90
16767;DHT22;8501;49.926;8.404;2022-11-20T14:28:00;6.00;99.90
16767;DHT22;8501;49.926;8.404;2022-11-20T14:30:44;6.00;99.90
16767;DHT22;8501;49.926;8.404;2022-11-20T14:33:12;6.00;99.90
16767;DHT22;8501;49.926;8.404;2022-11-20T14:35:48;6.00;99.90
16767;DHT22;8501;49.926;8.404;2022-11-20T14:38:16;6.00;99.90
16767;DHT22;8501;49.926;8.404;2022-11-20T14:40:43;6.00;99.90
16767;DHT22;8501;49.926;8.404;2022-11-20T14:43:26;6.00;99.90
16767;DHT22;8501;49.926;8.404;2022-11-20T14:46:04;6.00;99.90
16767;DHT22;8501;49.926;8.404;2022-11-20T14:48:46;6.00;99.90
16767;DHT22;8501;49.926;8.404;2022-11-20T14:51:25;6.00;99.90
16767;DHT22;8501;49.926;8.404;2022-11-20T14:53:52;6.00;99.90
16767;DHT22;8501;49.926;8.404;2022-11-20T14:56:24;6.00;99.90
16767;DHT22;8501;49.926;8.404;2022-11-20T14:58:59;6.00;99.90
16767;DHT22;8501;49.926;8.404;2022-11-20T15:01:30;6.00;99.90
16767;DHT22;8501;49.926;8.404;2022-11-20T15:04:09;6.00;99.90
16767;DHT22;8501;49.926;8.404;2022-11-20T15:06:36;6.00;99.90
16767;DHT22;8501;49.926;8.404;2022-11-20T15:09:04;6.00;99.90
16767;DHT22;8501;49.926;8.404;2022-11-20T15:11:33;6.00;99.90
16767;DHT22;8501;49.926;8.404;2022-11-20T15:14:05;6.00;99.90
16767;DHT22;8501;49.926;8.404;2022-11-20T15:16:32;6.00;99.90
16767;DHT22;8501;49.926;8.404;2022-11-20T15:18:58;6.00;99.90
16767;DHT22;8501;49.926;8.404;2022-11-20T15:21:25;6.00;99.90
16767;DHT22;8501;49.926;8.404;2022-11-20T15:23:50;6.00;99.90
16767;DHT22;8501;49.926;8.404;2022-11-20T15:26:25;6.00;99.90
16767;DHT22;8501;49.926;8.404;2022-11-20T15:28:51;6.00;99.90
16767;DHT22;8501;49.926;8.404;2022-11-20T15:31:22;6.00;99.90
16767;DHT22;8501;49.926;8.404;2022-11-20T15:33:49;6.00;99.90
16767;DHT22;8501;49.926;8.404;2022-11-20T15:36:14;6.00;99.90
16767;DHT22;8501;49.926;8.404;2022-11-20T15:38:40;6.00;99.90
16767;DHT22;8501;49.926;8.404;2022-11-20T15:41:06;6.00;99.90
16767;DHT22;8501;49.926;8.404;2022-11-20T15:43:32;6.00;99.90
16767;DHT22;8501;49.926;8.404;2022-11-20T15:46:06;6.00;99.90
16767;DHT22;8501;49.926;8.404;2022-11-20T15:48:38;6.00;99.90
16767;DHT22;8501;49.926;8.404;2022-11-20T15:53:40;6.00;99.90
16767;DHT22;8501;49.926;8.404;2022-11-20T15:56:11;6.00;99.90
16767;DHT22;8501;49.926;8.404;2022-11-20T15:58:37;6.00;99.90
16767;DHT22;8501;49.926;8.404;2022-11-20T16:01:02;6.00;99.90
16767;DHT22;8501;49.926;8.404;2022-11-20T16:03:28;6.00;99.90
16767;DHT22;8501;49.926;8.404;2022-11-20T16:05:56;6.00;99.90
16767;DHT22;8501;49.926;8.404;2022-11-20T16:08:22;6.00;99.90
16767;DHT22;8501;49.926;8.404;2022-11-20T16:10:47;6.00;99.90
16767;DHT22;8501;49.926;8.404;2022-11-20T16:13:15;6.00;99.90
16767;DHT22;8501;49.926;8.404;2022-11-20T16:16:11;6.00;99.90
16767;DHT22;8501;49.926;8.404;2022-11-20T16:18:42;6.00;99.90
16767;DHT22;8501;49.926;8.404;2022-11-20T16:21:11;6.00;99.90
16767;DHT22;8501;49.926;8.404;2022-11-20T16:23:37;6.00;99.90
16767;DHT22;8501;49.926;8.404;2022-11-20T16:26:15;6.00;99.90
16767;DHT22;8501;49.926;8.404;2022-11-20T16:28:42;6.00;99.90
16767;DHT22;8501;49.926;8.404;2022-11-20T16:31:13;6.00;99.90
16767;DHT22;8501;49.926;8.404;2022-11-20T16:33:39;6.00;99.90
16767;DHT22;8501;49.926;8.404;2022-11-20T16:36:13;6.00;99.90
16767;DHT22;8501;49.926;8.404;2022-11-20T16:38:39;6.00;99.90
16767;DHT22;8501;49.926;8.404;2022-11-20T16:41:06;6.00;99.90
16767;DHT22;8501;49.926;8.404;2022-11-20T16:43:53;6.00;99.90
16767;DHT22;8501;49.926;8.404;2022-11-20T16:46:25;6.00;99.90
16767;DHT22;8501;49.926;8.404;2022-11-20T16:48:56;6.00;99.90
16767;DHT22;8501;49.926;8.404;2022-11-20T16:51:23;6.00;99.90
16767;DHT22;8501;49.926;8.404;2022-11-20T16:53:49;6.00;99.90
16767;DHT22;8501;49.926;8.404;2022-11-20T16:56:21;6.00;99.90
16767;DHT22;8501;49.926;8.404;2022-11-20T16:58:48;6.00;99.90
16767;DHT22;8501;49.926;8.404;2022-11-20T17:01:16;6.00;99.90
16767;DHT22;8501;49.926;8.404;2022-11-20T17:03:45;6.00;99.90
16767;DHT22;8501;49.926;8.404;2022-11-20T17:06:14;6.00;99.90
16767;DHT22;8501;49.926;8.404;2022-11-20T17:08:40;6.00;99.90
16767;DHT22;8501;49.926;8.404;2022-11-20T17:11:07;6.00;99.90
16767;DHT22;8501;49.926;8.404;2022-11-20T17:13:34;6.00;99.90
16767;DHT22;8501;49.926;8.404;2022-11-20T17:16:07;6.10;99.90
16767;DHT22;8501;49.926;8.404;2022-11-20T17:18:33;6.10;99.90
16767;DHT22;8501;49.926;8.404;2022-11-20T17:20:59;6.10;99.90
16767;DHT22;8501;49.926;8.404;2022-11-20T17:23:33;6.10;99.90
16767;DHT22;8501;49.926;8.404;2022-11-20T17:26:07;6.00;99.90
16767;DHT22;8501;49.926;8.404;2022-11-20T17:28:33;6.00;99.90
16767;DHT22;8501;49.926;8.404;2022-11-20T17:31:01;6.00;99.90
16767;DHT22;8501;49.926;8.404;2022-11-20T17:33:26;6.00;99.90
16767;DHT22;8501;49.926;8.404;2022-11-20T17:35:52;6.00;99.90
16767;DHT22;8501;49.926;8.404;2022-11-20T17:38:17;6.00;99.90
16767;DHT22;8501;49.926;8.404;2022-11-20T17:40:43;6.00;99.90
16767;DHT22;8501;49.926;8.404;2022-11-20T17:43:08;6.00;99.90
16767;DHT22;8501;49.926;8.404;2022-11-20T17:45:37;6.10;99.90
16767;DHT22;8501;49.926;8.404;2022-11-20T17:48:03;6.10;99.90